sensor_id;sensor_type;location;lat;lon;timestamp;P1;durP1;ratioP1;P2;durP2;ratioP2
27796;SDS011;15177;50.844;4.412;2022-07-30T00:00:00;13.25;;;6.28;;
27796;SDS011;15177;50.844;4.412;2022-07-30T00:02:25;14.77;;;6.55;;
27796;SDS011;15177;50.844;4.412;2022-07-30T00:04:51;14.73;;;6.45;;
27796;SDS011;15177;50.844;4.412;2022-07-30T00:07:17;23.67;;;6.45;;
27796;SDS011;15177;50.844;4.412;2022-07-30T00:09:42;14.35;;;7.20;;
27796;SDS011;15177;50.844;4.412;2022-07-30T00:12:08;16.58;;;6.85;;
27796;SDS011;15177;50.844;4.412;2022-07-30T00:14:34;12.10;;;6.97;;
27796;SDS011;15177;50.844;4.412;2022-07-30T00:17:01;15.90;;;6.13;;
27796;SDS011;15177;50.844;4.412;2022-07-30T00:19:28;10.20;;;6.70;;
27796;SDS011;15177;50.844;4.412;2022-07-30T00:21:54;19.98;;;7.05;;
27796;SDS011;15177;50.844;4.412;2022-07-30T00:24:20;15.57;;;7.13;;
27796;SDS011;15177;50.844;4.412;2022-07-30T00:26:45;19.35;;;7.68;;
27796;SDS011;15177;50.844;4.412;2022-07-30T00:29:11;18.60;;;8.40;;
27796;SDS011;15177;50.844;4.412;2022-07-30T00:31:37;18.88;;;6.72;;
27796;SDS011;15177;50.844;4.412;2022-07-30T00:34:04;11.82;;;6.72;;
27796;SDS011;15177;50.844;4.412;2022-07-30T00:36:31;16.95;;;6.97;;
27796;SDS011;15177;50.844;4.412;2022-07-30T00:38:57;19.15;;;7.35;;
27796;SDS011;15177;50.844;4.412;2022-07-30T00:41:23;18.65;;;8.18;;
27796;SDS011;15177;50.844;4.412;2022-07-30T00:43:49;14.85;;;7.38;;
27796;SDS011;15177;50.844;4.412;2022-07-30T00:46:15;17.65;;;7.30;;
27796;SDS011;15177;50.844;4.412;2022-07-30T00:48:41;18.42;;;8.68;;
27796;SDS011;15177;50.844;4.412;2022-07-30T00:51:07;18.75;;;8.13;;
27796;SDS011;15177;50.844;4.412;2022-07-30T00:53:33;18.60;;;8.43;;
27796;SDS011;15177;50.844;4.412;2022-07-30T00:55:59;18.77;;;8.73;;
27796;SDS011;15177;50.844;4.412;2022-07-30T00:58:26;20.55;;;8.68;;
27796;SDS011;15177;50.844;4.412;2022-07-30T01:00:52;17.70;;;8.38;;
27796;SDS011;15177;50.844;4.412;2022-07-30T01:03:17;21.60;;;8.65;;
27796;SDS011;15177;50.844;4.412;2022-07-30T01:05:43;17.55;;;8.18;;
27796;SDS011;15177;50.844;4.412;2022-07-30T01:08:09;14.40;;;7.85;;
27796;SDS011;15177;50.844;4.412;2022-07-30T01:10:35;17.70;;;8.95;;
27796;SDS011;15177;50.844;4.412;2022-07-30T01:13:01;16.25;;;8.50;;
27796;SDS011;15177;50.844;4.412;2022-07-30T01:15:28;18.45;;;8.55;;
27796;SDS011;15177;50.844;4.412;2022-07-30T01:17:54;16.35;;;7.88;;
27796;SDS011;15177;50.844;4.412;2022-07-30T01:20:28;16.55;;;8.90;;
27796;SDS011;15177;50.844;4.412;2022-07-30T01:25:47;21.17;;;8.90;;
27796;SDS011;15177;50.844;4.412;2022-07-30T01:28:20;17.27;;;8.95;;
27796;SDS011;15177;50.844;4.412;2022-07-30T01:30:48;18.45;;;9.27;;
27796;SDS011;15177;50.844;4.412;2022-07-30T01:33:16;20.38;;;10.13;;
27796;SDS011;15177;50.844;4.412;2022-07-30T01:35:45;21.27;;;9.90;;
27796;SDS011;15177;50.844;4.412;2022-07-30T01:38:12;20.10;;;9.43;;
27796;SDS011;15177;50.844;4.412;2022-07-30T01:40:41;27.75;;;9.82;;
27796;SDS011;15177;50.844;4.412;2022-07-30T01:43:09;24.17;;;10.07;;
27796;SDS011;15177;50.844;4.412;2022-07-30T01:45:36;17.42;;;10.77;;
27796;SDS011;15177;50.844;4.412;2022-07-30T01:48:03;16.30;;;10.27;;
27796;SDS011;15177;50.844;4.412;2022-07-30T01:50:30;14.27;;;9.85;;
27796;SDS011;15177;50.844;4.412;2022-07-30T01:52:58;22.60;;;10.75;;
27796;SDS011;15177;50.844;4.412;2022-07-30T01:58:02;22.67;;;10.75;;
27796;SDS011;15177;50.844;4.412;2022-07-30T02:00:30;23.23;;;11.23;;
27796;SDS011;15177;50.844;4.412;2022-07-30T02:03:00;17.80;;;10.02;;
27796;SDS011;15177;50.844;4.412;2022-07-30T02:05:27;19.95;;;11.07;;
27796;SDS011;15177;50.844;4.412;2022-07-30T02:08:00;22.75;;;9.60;;
27796;SDS011;15177;50.844;4.412;2022-07-30T02:10:35;20.13;;;10.38;;
27796;SDS011;15177;50.844;4.412;2022-07-30T02:13:06;20.80;;;11.10;;
27796;SDS011;15177;50.844;4.412;2022-07-30T02:15:34;18.20;;;10.77;;
27796;SDS011;15177;50.844;4.412;2022-07-30T02:18:09;22.60;;;11.48;;
27796;SDS011;15177;50.844;4.412;2022-07-30T02:20:44;22.10;;;11.77;;
27796;SDS011;15177;50.844;4.412;2022-07-30T02:23:14;24.13;;;11.90;;
27796;SDS011;15177;50.844;4.412;2022-07-30T02:25:42;19.67;;;11.15;;
27796;SDS011;15177;50.844;4.412;2022-07-30T02:28:13;21.60;;;11.40;;
27796;SDS011;15177;50.844;4.412;2022-07-30T02:30:50;22.17;;;11.48;;
27796;SDS011;15177;50.844;4.412;2022-07-30T02:33:20;23.42;;;11.07;;
27796;SDS011;15177;50.844;4.412;2022-07-30T02:35:48;20.70;;;10.93;;
27796;SDS011;15177;50.844;4.412;2022-07-30T02:38:16;28.83;;;10.93;;
27796;SDS011;15177;50.844;4.412;2022-07-30T02:40:45;21.42;;;11.90;;
27796;SDS011;15177;50.844;4.412;2022-07-30T02:43:13;25.33;;;11.18;;
27796;SDS011;15177;50.844;4.412;2022-07-30T02:45:40;16.60;;;11.13;;
27796;SDS011;15177;50.844;4.412;2022-07-30T02:48:08;20.67;;;11.38;;
27796;SDS011;15177;50.844;4.412;2022-07-30T02:50:37;20.95;;;11.20;;
27796;SDS011;15177;50.844;4.412;2022-07-30T02:53:04;23.58;;;11.02;;
27796;SDS011;15177;50.844;4.412;2022-07-30T02:55:32;20.88;;;11.55;;
27796;SDS011;15177;50.844;4.412;2022-07-30T02:58:04;17.98;;;11.35;;
27796;SDS011;15177;50.844;4.412;2022-07-30T03:00:31;20.38;;;11.82;;
27796;SDS011;15177;50.844;4.412;2022-07-30T03:02:57;20.75;;;10.63;;
27796;SDS011;15177;50.844;4.412;2022-07-30T03:05:24;25.05;;;11.70;;
27796;SDS011;15177;50.844;4.412;2022-07-30T03:07:53;22.35;;;11.27;;
27796;SDS011;15177;50.844;4.412;2022-07-30T03:10:21;24.33;;;12.00;;
27796;SDS011;15177;50.844;4.412;2022-07-30T03:12:49;15.18;;;10.82;;
27796;SDS011;15177;50.844;4.412;2022-07-30T03:15:16;22.25;;;12.07;;
27796;SDS011;15177;50.844;4.412;2022-07-30T03:17:43;28.60;;;13.38;;
27796;SDS011;15177;50.844;4.412;2022-07-30T03:20:14;19.75;;;11.38;;
27796;SDS011;15177;50.844;4.412;2022-07-30T03:22:43;23.05;;;12.82;;
27796;SDS011;15177;50.844;4.412;2022-07-30T03:25:13;26.33;;;12.60;;
27796;SDS011;15177;50.844;4.412;2022-07-30T03:27:42;23.52;;;12.18;;
27796;SDS011;15177;50.844;4.412;2022-07-30T03:30:08;18.40;;;12.38;;
27796;SDS011;15177;50.844;4.412;2022-07-30T03:32:34;24.55;;;12.93;;
27796;SDS011;15177;50.844;4.412;2022-07-30T03:35:01;19.08;;;12.48;;
27796;SDS011;15177;50.844;4.412;2022-07-30T03:37:29;22.15;;;12.73;;
27796;SDS011;15177;50.844;4.412;2022-07-30T03:39:56;22.55;;;13.57;;
27796;SDS011;15177;50.844;4.412;2022-07-30T03:42:23;29.65;;;13.57;;
27796;SDS011;15177;50.844;4.412;2022-07-30T03:44:53;24.75;;;12.65;;
27796;SDS011;15177;50.844;4.412;2022-07-30T03:47:20;27.67;;;12.80;;
27796;SDS011;15177;50.844;4.412;2022-07-30T03:49:47;25.58;;;12.38;;
27796;SDS011;15177;50.844;4.412;2022-07-30T03:52:14;23.00;;;12.70;;
27796;SDS011;15177;50.844;4.412;2022-07-30T03:54:40;22.50;;;12.48;;
27796;SDS011;15177;50.844;4.412;2022-07-30T03:57:06;20.50;;;12.07;;
27796;SDS011;15177;50.844;4.412;2022-07-30T03:59:32;25.42;;;12.55;;
27796;SDS011;15177;50.844;4.412;2022-07-30T04:01:58;22.73;;;13.70;;
27796;SDS011;15177;50.844;4.412;2022-07-30T04:04:26;19.35;;;11.80;;
27796;SDS011;15177;50.844;4.412;2022-07-30T04:06:52;17.58;;;12.15;;
27796;SDS011;15177;50.844;4.412;2022-07-30T04:09:19;21.35;;;12.98;;
27796;SDS011;15177;50.844;4.412;2022-07-30T04:11:46;25.50;;;12.93;;
27796;SDS011;15177;50.844;4.412;2022-07-30T04:14:11;23.65;;;13.43;;
27796;SDS011;15177;50.844;4.412;2022-07-30T04:19:04;24.42;;;15.32;;
27796;SDS011;15177;50.844;4.412;2022-07-30T04:21:33;22.67;;;14.23;;
27796;SDS011;15177;50.844;4.412;2022-07-30T04:24:01;29.42;;;14.63;;
27796;SDS011;15177;50.844;4.412;2022-07-30T04:26:29;27.00;;;14.32;;
27796;SDS011;15177;50.844;4.412;2022-07-30T04:28:58;28.65;;;15.98;;
27796;SDS011;15177;50.844;4.412;2022-07-30T04:31:24;28.55;;;17.63;;
27796;SDS011;15177;50.844;4.412;2022-07-30T04:33:51;30.63;;;16.75;;
27796;SDS011;15177;50.844;4.412;2022-07-30T04:36:17;31.83;;;18.15;;
27796;SDS011;15177;50.844;4.412;2022-07-30T04:38:43;37.40;;;18.50;;
27796;SDS011;15177;50.844;4.412;2022-07-30T04:41:08;29.42;;;18.83;;
27796;SDS011;15177;50.844;4.412;2022-07-30T04:43:35;31.17;;;19.17;;
27796;SDS011;15177;50.844;4.412;2022-07-30T04:46:01;28.48;;;19.40;;
27796;SDS011;15177;50.844;4.412;2022-07-30T04:48:26;29.90;;;18.70;;
27796;SDS011;15177;50.844;4.412;2022-07-30T04:50:53;28.08;;;17.90;;
27796;SDS011;15177;50.844;4.412;2022-07-30T04:53:23;33.70;;;19.20;;
27796;SDS011;15177;50.844;4.412;2022-07-30T04:55:51;28.38;;;16.85;;
27796;SDS011;15177;50.844;4.412;2022-07-30T04:58:19;26.73;;;17.40;;
27796;SDS011;15177;50.844;4.412;2022-07-30T05:00:46;32.47;;;16.83;;
27796;SDS011;15177;50.844;4.412;2022-07-30T05:03:13;23.25;;;14.88;;
27796;SDS011;15177;50.844;4.412;2022-07-30T05:05:40;29.45;;;15.65;;
27796;SDS011;15177;50.844;4.412;2022-07-30T05:08:06;28.45;;;15.50;;
27796;SDS011;15177;50.844;4.412;2022-07-30T05:10:33;28.70;;;12.85;;
27796;SDS011;15177;50.844;4.412;2022-07-30T05:13:00;25.15;;;12.98;;
27796;SDS011;15177;50.844;4.412;2022-07-30T05:15:25;22.45;;;12.98;;
27796;SDS011;15177;50.844;4.412;2022-07-30T05:17:51;22.45;;;11.95;;
27796;SDS011;15177;50.844;4.412;2022-07-30T05:20:17;19.58;;;12.05;;
27796;SDS011;15177;50.844;4.412;2022-07-30T05:22:42;25.08;;;11.27;;
27796;SDS011;15177;50.844;4.412;2022-07-30T05:25:09;17.05;;;10.85;;
27796;SDS011;15177;50.844;4.412;2022-07-30T05:27:35;22.60;;;11.80;;
27796;SDS011;15177;50.844;4.412;2022-07-30T05:30:01;17.85;;;10.05;;
27796;SDS011;15177;50.844;4.412;2022-07-30T05:32:27;18.90;;;10.43;;
27796;SDS011;15177;50.844;4.412;2022-07-30T05:34:52;19.50;;;9.65;;
27796;SDS011;15177;50.844;4.412;2022-07-30T05:37:23;17.00;;;8.93;;
27796;SDS011;15177;50.844;4.412;2022-07-30T05:39:49;14.88;;;9.32;;
27796;SDS011;15177;50.844;4.412;2022-07-30T05:42:14;15.75;;;8.70;;
27796;SDS011;15177;50.844;4.412;2022-07-30T05:44:40;12.90;;;8.13;;
27796;SDS011;15177;50.844;4.412;2022-07-30T05:47:05;21.95;;;7.88;;
27796;SDS011;15177;50.844;4.412;2022-07-30T05:49:31;15.23;;;6.78;;
27796;SDS011;15177;50.844;4.412;2022-07-30T05:51:57;11.70;;;6.75;;
27796;SDS011;15177;50.844;4.412;2022-07-30T05:54:22;13.98;;;7.93;;
27796;SDS011;15177;50.844;4.412;2022-07-30T05:56:48;12.70;;;7.55;;
27796;SDS011;15177;50.844;4.412;2022-07-30T05:59:13;14.20;;;6.47;;
27796;SDS011;15177;50.844;4.412;2022-07-30T06:01:39;13.43;;;6.53;;
27796;SDS011;15177;50.844;4.412;2022-07-30T06:04:04;10.43;;;5.68;;
27796;SDS011;15177;50.844;4.412;2022-07-30T06:06:30;16.40;;;6.10;;
27796;SDS011;15177;50.844;4.412;2022-07-30T06:08:55;10.82;;;6.53;;
27796;SDS011;15177;50.844;4.412;2022-07-30T06:11:21;12.15;;;5.80;;
27796;SDS011;15177;50.844;4.412;2022-07-30T06:13:47;17.50;;;5.72;;
27796;SDS011;15177;50.844;4.412;2022-07-30T06:16:12;14.10;;;5.72;;
27796;SDS011;15177;50.844;4.412;2022-07-30T06:18:38;9.25;;;4.50;;
27796;SDS011;15177;50.844;4.412;2022-07-30T06:21:03;15.68;;;5.00;;
27796;SDS011;15177;50.844;4.412;2022-07-30T06:23:29;7.15;;;4.93;;
27796;SDS011;15177;50.844;4.412;2022-07-30T06:25:54;10.63;;;4.38;;
27796;SDS011;15177;50.844;4.412;2022-07-30T06:28:20;10.98;;;5.10;;
27796;SDS011;15177;50.844;4.412;2022-07-30T06:30:47;10.73;;;4.93;;
27796;SDS011;15177;50.844;4.412;2022-07-30T06:33:13;9.23;;;4.85;;
27796;SDS011;15177;50.844;4.412;2022-07-30T06:35:39;13.85;;;5.00;;
27796;SDS011;15177;50.844;4.412;2022-07-30T06:38:05;9.60;;;4.22;;
27796;SDS011;15177;50.844;4.412;2022-07-30T06:40:31;12.27;;;4.78;;
27796;SDS011;15177;50.844;4.412;2022-07-30T06:42:57;9.95;;;3.83;;
27796;SDS011;15177;50.844;4.412;2022-07-30T06:45:23;8.52;;;4.35;;
27796;SDS011;15177;50.844;4.412;2022-07-30T06:47:49;7.25;;;4.10;;
27796;SDS011;15177;50.844;4.412;2022-07-30T06:50:14;7.82;;;4.45;;
27796;SDS011;15177;50.844;4.412;2022-07-30T06:52:42;8.10;;;3.70;;
27796;SDS011;15177;50.844;4.412;2022-07-30T06:55:08;7.50;;;3.65;;
27796;SDS011;15177;50.844;4.412;2022-07-30T06:57:34;7.18;;;2.88;;
27796;SDS011;15177;50.844;4.412;2022-07-30T07:00:00;5.95;;;3.03;;
27796;SDS011;15177;50.844;4.412;2022-07-30T07:02:25;8.93;;;2.65;;
27796;SDS011;15177;50.844;4.412;2022-07-30T07:04:51;7.10;;;2.47;;
27796;SDS011;15177;50.844;4.412;2022-07-30T07:07:16;6.00;;;2.80;;
27796;SDS011;15177;50.844;4.412;2022-07-30T07:09:42;6.68;;;2.55;;
27796;SDS011;15177;50.844;4.412;2022-07-30T07:12:08;8.57;;;2.53;;
27796;SDS011;15177;50.844;4.412;2022-07-30T07:14:33;5.47;;;1.92;;
27796;SDS011;15177;50.844;4.412;2022-07-30T07:16:59;8.45;;;2.83;;
27796;SDS011;15177;50.844;4.412;2022-07-30T07:19:25;6.90;;;2.33;;
27796;SDS011;15177;50.844;4.412;2022-07-30T07:21:50;4.05;;;1.73;;
27796;SDS011;15177;50.844;4.412;2022-07-30T07:24:16;5.05;;;1.95;;
27796;SDS011;15177;50.844;4.412;2022-07-30T07:26:41;7.53;;;2.00;;
27796;SDS011;15177;50.844;4.412;2022-07-30T07:29:07;6.13;;;2.35;;
27796;SDS011;15177;50.844;4.412;2022-07-30T07:31:33;5.35;;;2.15;;
27796;SDS011;15177;50.844;4.412;2022-07-30T07:33:58;7.90;;;2.58;;
27796;SDS011;15177;50.844;4.412;2022-07-30T07:36:24;7.18;;;2.38;;
27796;SDS011;15177;50.844;4.412;2022-07-30T07:38:50;7.85;;;2.55;;
27796;SDS011;15177;50.844;4.412;2022-07-30T07:41:15;5.10;;;1.73;;
27796;SDS011;15177;50.844;4.412;2022-07-30T07:43:42;4.22;;;1.80;;
27796;SDS011;15177;50.844;4.412;2022-07-30T07:46:08;6.75;;;1.83;;
27796;SDS011;15177;50.844;4.412;2022-07-30T07:48:34;5.85;;;1.95;;
27796;SDS011;15177;50.844;4.412;2022-07-30T07:51:01;4.32;;;2.15;;
27796;SDS011;15177;50.844;4.412;2022-07-30T07:53:26;3.53;;;1.63;;
27796;SDS011;15177;50.844;4.412;2022-07-30T07:55:52;5.25;;;1.92;;
27796;SDS011;15177;50.844;4.412;2022-07-30T07:58:18;6.25;;;1.70;;
27796;SDS011;15177;50.844;4.412;2022-07-30T08:00:43;3.90;;;1.50;;
27796;SDS011;15177;50.844;4.412;2022-07-30T08:03:09;2.38;;;1.23;;
27796;SDS011;15177;50.844;4.412;2022-07-30T08:05:35;3.88;;;1.70;;
27796;SDS011;15177;50.844;4.412;2022-07-30T08:08:00;5.25;;;1.52;;
27796;SDS011;15177;50.844;4.412;2022-07-30T08:10:26;3.40;;;1.63;;
27796;SDS011;15177;50.844;4.412;2022-07-30T08:12:52;8.70;;;1.85;;
27796;SDS011;15177;50.844;4.412;2022-07-30T08:15:17;6.18;;;2.22;;
27796;SDS011;15177;50.844;4.412;2022-07-30T08:17:44;4.57;;;1.98;;
27796;SDS011;15177;50.844;4.412;2022-07-30T08:20:11;2.65;;;1.35;;
27796;SDS011;15177;50.844;4.412;2022-07-30T08:22:38;7.03;;;2.05;;
27796;SDS011;15177;50.844;4.412;2022-07-30T08:25:05;2.80;;;1.55;;
27796;SDS011;15177;50.844;4.412;2022-07-30T08:27:31;4.35;;;1.85;;
27796;SDS011;15177;50.844;4.412;2022-07-30T08:29:57;3.50;;;1.67;;
27796;SDS011;15177;50.844;4.412;2022-07-30T08:32:26;6.43;;;1.80;;
27796;SDS011;15177;50.844;4.412;2022-07-30T08:34:52;4.00;;;1.50;;
27796;SDS011;15177;50.844;4.412;2022-07-30T08:37:17;4.13;;;1.52;;
27796;SDS011;15177;50.844;4.412;2022-07-30T08:39:43;3.38;;;1.55;;
27796;SDS011;15177;50.844;4.412;2022-07-30T08:42:08;3.42;;;1.65;;
27796;SDS011;15177;50.844;4.412;2022-07-30T08:44:38;4.28;;;2.00;;
27796;SDS011;15177;50.844;4.412;2022-07-30T08:47:06;4.45;;;1.48;;
27796;SDS011;15177;50.844;4.412;2022-07-30T08:49:35;6.05;;;1.70;;
27796;SDS011;15177;50.844;4.412;2022-07-30T08:52:01;5.78;;;1.73;;
27796;SDS011;15177;50.844;4.412;2022-07-30T08:54:29;2.28;;;1.27;;
27796;SDS011;15177;50.844;4.412;2022-07-30T08:56:56;2.17;;;1.35;;
27796;SDS011;15177;50.844;4.412;2022-07-30T08:59:23;2.92;;;1.52;;
27796;SDS011;15177;50.844;4.412;2022-07-30T09:01:49;4.43;;;2.00;;
27796;SDS011;15177;50.844;4.412;2022-07-30T09:04:16;3.25;;;1.67;;
27796;SDS011;15177;50.844;4.412;2022-07-30T09:06:41;3.70;;;1.65;;
27796;SDS011;15177;50.844;4.412;2022-07-30T09:09:08;3.88;;;2.00;;
27796;SDS011;15177;50.844;4.412;2022-07-30T09:11:34;5.65;;;2.05;;
27796;SDS011;15177;50.844;4.412;2022-07-30T09:14:07;3.95;;;2.10;;
27796;SDS011;15177;50.844;4.412;2022-07-30T09:16:37;4.45;;;1.80;;
27796;SDS011;15177;50.844;4.412;2022-07-30T09:24:22;3.78;;;2.03;;
27796;SDS011;15177;50.844;4.412;2022-07-30T09:29:27;2.30;;;1.38;;
27796;SDS011;15177;50.844;4.412;2022-07-30T09:34:32;5.13;;;1.85;;
27796;SDS011;15177;50.844;4.412;2022-07-30T09:37:03;3.95;;;1.70;;
27796;SDS011;15177;50.844;4.412;2022-07-30T09:39:49;3.70;;;1.85;;
27796;SDS011;15177;50.844;4.412;2022-07-30T09:42:16;7.63;;;1.90;;
27796;SDS011;15177;50.844;4.412;2022-07-30T09:44:46;3.15;;;1.70;;
27796;SDS011;15177;50.844;4.412;2022-07-30T09:52:42;7.45;;;1.88;;
27796;SDS011;15177;50.844;4.412;2022-07-30T09:55:10;5.57;;;1.83;;
27796;SDS011;15177;50.844;4.412;2022-07-30T10:00:22;4.53;;;1.83;;
27796;SDS011;15177;50.844;4.412;2022-07-30T10:02:50;5.55;;;1.65;;
27796;SDS011;15177;50.844;4.412;2022-07-30T10:05:16;3.03;;;1.88;;
27796;SDS011;15177;50.844;4.412;2022-07-30T10:07:51;4.90;;;2.08;;
27796;SDS011;15177;50.844;4.412;2022-07-30T10:10:19;3.35;;;1.58;;
27796;SDS011;15177;50.844;4.412;2022-07-30T10:12:47;5.95;;;2.05;;
27796;SDS011;15177;50.844;4.412;2022-07-30T10:15:20;4.03;;;1.70;;
27796;SDS011;15177;50.844;4.412;2022-07-30T10:17:50;6.55;;;1.85;;
27796;SDS011;15177;50.844;4.412;2022-07-30T10:20:18;6.32;;;1.92;;
27796;SDS011;15177;50.844;4.412;2022-07-30T10:22:46;5.38;;;1.70;;
27796;SDS011;15177;50.844;4.412;2022-07-30T10:25:12;5.07;;;1.85;;
27796;SDS011;15177;50.844;4.412;2022-07-30T10:27:43;3.83;;;1.60;;
27796;SDS011;15177;50.844;4.412;2022-07-30T10:30:10;4.88;;;1.90;;
27796;SDS011;15177;50.844;4.412;2022-07-30T10:32:37;4.03;;;1.75;;
27796;SDS011;15177;50.844;4.412;2022-07-30T10:35:03;6.00;;;1.85;;
27796;SDS011;15177;50.844;4.412;2022-07-30T10:37:30;4.40;;;1.80;;
27796;SDS011;15177;50.844;4.412;2022-07-30T10:42:49;6.90;;;2.03;;
27796;SDS011;15177;50.844;4.412;2022-07-30T10:45:27;4.75;;;2.15;;
27796;SDS011;15177;50.844;4.412;2022-07-30T10:48:11;8.55;;;2.28;;
27796;SDS011;15177;50.844;4.412;2022-07-30T11:09:40;4.88;;;1.80;;
27796;SDS011;15177;50.844;4.412;2022-07-30T11:12:07;5.22;;;2.05;;
27796;SDS011;15177;50.844;4.412;2022-07-30T11:17:14;6.90;;;2.22;;
27796;SDS011;15177;50.844;4.412;2022-07-30T11:22:32;3.63;;;1.90;;
27796;SDS011;15177;50.844;4.412;2022-07-30T11:25:07;3.58;;;2.05;;
27796;SDS011;15177;50.844;4.412;2022-07-30T11:32:40;5.45;;;2.17;;
27796;SDS011;15177;50.844;4.412;2022-07-30T11:40:32;7.18;;;2.45;;
27796;SDS011;15177;50.844;4.412;2022-07-30T11:45:43;7.45;;;2.58;;
27796;SDS011;15177;50.844;4.412;2022-07-30T11:48:11;9.30;;;2.70;;
27796;SDS011;15177;50.844;4.412;2022-07-30T11:50:39;5.28;;;2.17;;
27796;SDS011;15177;50.844;4.412;2022-07-30T11:53:12;7.80;;;2.30;;
27796;SDS011;15177;50.844;4.412;2022-07-30T11:55:49;5.15;;;2.00;;
27796;SDS011;15177;50.844;4.412;2022-07-30T12:03:39;9.48;;;2.45;;
27796;SDS011;15177;50.844;4.412;2022-07-30T12:06:07;9.23;;;2.55;;
27796;SDS011;15177;50.844;4.412;2022-07-30T12:08:41;9.95;;;1.95;;
27796;SDS011;15177;50.844;4.412;2022-07-30T12:11:08;6.57;;;2.03;;
27796;SDS011;15177;50.844;4.412;2022-07-30T12:13:34;5.82;;;2.15;;
27796;SDS011;15177;50.844;4.412;2022-07-30T12:16:06;5.80;;;2.10;;
27796;SDS011;15177;50.844;4.412;2022-07-30T12:18:33;6.63;;;2.10;;
27796;SDS011;15177;50.844;4.412;2022-07-30T12:21:00;5.55;;;2.47;;
27796;SDS011;15177;50.844;4.412;2022-07-30T12:23:28;3.85;;;1.67;;
27796;SDS011;15177;50.844;4.412;2022-07-30T12:25:55;3.67;;;1.92;;
27796;SDS011;15177;50.844;4.412;2022-07-30T12:28:22;4.40;;;2.10;;
27796;SDS011;15177;50.844;4.412;2022-07-30T12:30:52;7.68;;;1.90;;
27796;SDS011;15177;50.844;4.412;2022-07-30T12:33:19;4.85;;;2.00;;
27796;SDS011;15177;50.844;4.412;2022-07-30T12:35:46;7.18;;;1.90;;
27796;SDS011;15177;50.844;4.412;2022-07-30T12:38:17;5.35;;;1.50;;
27796;SDS011;15177;50.844;4.412;2022-07-30T12:40:50;4.80;;;1.88;;
27796;SDS011;15177;50.844;4.412;2022-07-30T12:46:13;4.28;;;1.90;;
27796;SDS011;15177;50.844;4.412;2022-07-30T12:51:28;4.95;;;2.05;;
27796;SDS011;15177;50.844;4.412;2022-07-30T12:53:59;2.45;;;1.42;;
27796;SDS011;15177;50.844;4.412;2022-07-30T12:56:29;3.17;;;1.50;;
27796;SDS011;15177;50.844;4.412;2022-07-30T12:58:56;5.38;;;2.10;;
27796;SDS011;15177;50.844;4.412;2022-07-30T13:01:56;5.88;;;1.92;;
27796;SDS011;15177;50.844;4.412;2022-07-30T13:04:16;3.78;;;1.52;;
27796;SDS011;15177;50.844;4.412;2022-07-30T13:06:42;2.63;;;1.77;;
27796;SDS011;15177;50.844;4.412;2022-07-30T13:11:45;7.85;;;1.55;;
27796;SDS011;15177;50.844;4.412;2022-07-30T13:14:11;4.30;;;1.80;;
27796;SDS011;15177;50.844;4.412;2022-07-30T13:16:39;5.70;;;1.38;;
27796;SDS011;15177;50.844;4.412;2022-07-30T13:19:08;3.45;;;1.65;;
27796;SDS011;15177;50.844;4.412;2022-07-30T13:21:38;4.25;;;1.70;;
27796;SDS011;15177;50.844;4.412;2022-07-30T13:24:05;4.45;;;1.65;;
27796;SDS011;15177;50.844;4.412;2022-07-30T13:26:31;5.00;;;1.50;;
27796;SDS011;15177;50.844;4.412;2022-07-30T13:28:59;2.40;;;1.15;;
27796;SDS011;15177;50.844;4.412;2022-07-30T13:31:25;5.70;;;1.58;;
27796;SDS011;15177;50.844;4.412;2022-07-30T13:33:50;4.40;;;1.60;;
27796;SDS011;15177;50.844;4.412;2022-07-30T13:36:16;1.92;;;1.40;;
27796;SDS011;15177;50.844;4.412;2022-07-30T13:38:42;3.10;;;1.77;;
27796;SDS011;15177;50.844;4.412;2022-07-30T13:41:10;5.55;;;1.52;;
27796;SDS011;15177;50.844;4.412;2022-07-30T13:43:36;7.72;;;1.60;;
27796;SDS011;15177;50.844;4.412;2022-07-30T13:46:02;5.28;;;1.73;;
27796;SDS011;15177;50.844;4.412;2022-07-30T13:48:28;2.95;;;1.73;;
27796;SDS011;15177;50.844;4.412;2022-07-30T13:50:54;2.83;;;1.33;;
27796;SDS011;15177;50.844;4.412;2022-07-30T13:53:21;3.78;;;1.60;;
27796;SDS011;15177;50.844;4.412;2022-07-30T13:55:47;2.63;;;1.73;;
27796;SDS011;15177;50.844;4.412;2022-07-30T13:58:13;2.55;;;1.40;;
27796;SDS011;15177;50.844;4.412;2022-07-30T14:00:38;6.22;;;1.50;;
27796;SDS011;15177;50.844;4.412;2022-07-30T14:03:05;2.53;;;1.50;;
27796;SDS011;15177;50.844;4.412;2022-07-30T14:05:32;8.15;;;2.22;;
27796;SDS011;15177;50.844;4.412;2022-07-30T14:07:59;4.93;;;1.60;;
27796;SDS011;15177;50.844;4.412;2022-07-30T14:10:25;5.38;;;1.92;;
27796;SDS011;15177;50.844;4.412;2022-07-30T14:12:51;4.25;;;2.17;;
27796;SDS011;15177;50.844;4.412;2022-07-30T14:15:23;6.95;;;2.08;;
27796;SDS011;15177;50.844;4.412;2022-07-30T14:17:51;5.57;;;1.77;;
27796;SDS011;15177;50.844;4.412;2022-07-30T14:20:17;2.47;;;1.65;;
27796;SDS011;15177;50.844;4.412;2022-07-30T14:22:43;6.75;;;1.80;;
27796;SDS011;15177;50.844;4.412;2022-07-30T14:25:09;5.45;;;2.25;;
27796;SDS011;15177;50.844;4.412;2022-07-30T14:27:35;4.32;;;1.60;;
27796;SDS011;15177;50.844;4.412;2022-07-30T14:30:02;3.53;;;1.88;;
27796;SDS011;15177;50.844;4.412;2022-07-30T14:32:30;4.43;;;1.55;;
27796;SDS011;15177;50.844;4.412;2022-07-30T14:34:56;4.50;;;1.50;;
27796;SDS011;15177;50.844;4.412;2022-07-30T14:37:21;6.75;;;1.83;;
27796;SDS011;15177;50.844;4.412;2022-07-30T14:39:47;3.65;;;2.03;;
27796;SDS011;15177;50.844;4.412;2022-07-30T14:42:13;3.42;;;1.65;;
27796;SDS011;15177;50.844;4.412;2022-07-30T14:44:39;8.50;;;1.83;;
27796;SDS011;15177;50.844;4.412;2022-07-30T14:47:04;3.13;;;1.48;;
27796;SDS011;15177;50.844;4.412;2022-07-30T14:49:30;6.47;;;2.05;;
27796;SDS011;15177;50.844;4.412;2022-07-30T14:51:55;4.78;;;1.70;;
27796;SDS011;15177;50.844;4.412;2022-07-30T14:54:24;2.03;;;1.38;;
27796;SDS011;15177;50.844;4.412;2022-07-30T14:56:51;3.80;;;1.95;;
27796;SDS011;15177;50.844;4.412;2022-07-30T14:59:17;4.53;;;1.50;;
27796;SDS011;15177;50.844;4.412;2022-07-30T15:01:43;5.78;;;1.27;;
27796;SDS011;15177;50.844;4.412;2022-07-30T15:04:11;4.35;;;1.55;;
27796;SDS011;15177;50.844;4.412;2022-07-30T15:06:37;4.25;;;1.83;;
27796;SDS011;15177;50.844;4.412;2022-07-30T15:09:04;3.53;;;1.48;;
27796;SDS011;15177;50.844;4.412;2022-07-30T15:11:31;7.05;;;1.55;;
27796;SDS011;15177;50.844;4.412;2022-07-30T15:13:56;4.85;;;1.60;;
27796;SDS011;15177;50.844;4.412;2022-07-30T15:16:22;3.00;;;1.48;;
27796;SDS011;15177;50.844;4.412;2022-07-30T15:18:47;2.30;;;1.50;;
27796;SDS011;15177;50.844;4.412;2022-07-30T15:21:13;2.38;;;1.65;;
27796;SDS011;15177;50.844;4.412;2022-07-30T15:23:39;3.92;;;1.58;;
27796;SDS011;15177;50.844;4.412;2022-07-30T15:26:05;4.47;;;1.58;;
27796;SDS011;15177;50.844;4.412;2022-07-30T15:28:30;3.65;;;1.33;;
27796;SDS011;15177;50.844;4.412;2022-07-30T15:30:56;5.15;;;1.80;;
27796;SDS011;15177;50.844;4.412;2022-07-30T15:33:22;7.15;;;1.67;;
27796;SDS011;15177;50.844;4.412;2022-07-30T15:35:48;5.55;;;2.05;;
27796;SDS011;15177;50.844;4.412;2022-07-30T15:38:14;7.18;;;1.80;;
27796;SDS011;15177;50.844;4.412;2022-07-30T15:40:43;6.00;;;1.58;;
27796;SDS011;15177;50.844;4.412;2022-07-30T15:43:09;3.35;;;1.58;;
27796;SDS011;15177;50.844;4.412;2022-07-30T15:45:36;2.53;;;1.48;;
27796;SDS011;15177;50.844;4.412;2022-07-30T15:48:02;8.90;;;1.70;;
27796;SDS011;15177;50.844;4.412;2022-07-30T15:50:28;9.07;;;2.00;;
27796;SDS011;15177;50.844;4.412;2022-07-30T15:52:53;6.47;;;1.80;;
27796;SDS011;15177;50.844;4.412;2022-07-30T15:55:20;3.15;;;1.83;;
27796;SDS011;15177;50.844;4.412;2022-07-30T15:57:46;4.97;;;1.50;;